THY3BZ LTAN-LTFM
Flight info
| Callsign | THY3BZ |
|---|---|
| Flight time | 1h 4m |
| Altitude | 38000 |
| Route | HISAR UB545 KFK UM855 SISPI |
| Aircraft | A20N/M-SDE2E3FGHIRWXY/LB1 |
Departure
| Time | 2026-04-24 08:49 |
|---|---|
| Airport | Konya Airport (LTAN) |
Arrival
| Time | 2026-04-24 09:54 |
|---|---|
| Airport | İstanbul Airport (LTFM) |
| Time | Latitude | Longitude | Altitude | Speed | Heading |
|---|---|---|---|---|---|
| 2026-04-24 08:28 | 37.98560 | 32.57582 | 3387 ft | 0 kts | 107° |
| 2026-04-24 08:39 | 37.98561 | 32.57576 | 3387 ft | 2 kts | 107° |
| 2026-04-24 08:39 | 37.98566 | 32.57557 | 3387 ft | 2 kts | 107° |
| 2026-04-24 08:40 | 37.98570 | 32.57536 | 3387 ft | 2 kts | 96° |
| 2026-04-24 08:40 | 37.98570 | 32.57516 | 3387 ft | 2 kts | 69° |
| 2026-04-24 08:40 | 37.98560 | 32.57500 | 3387 ft | 2 kts | 15° |
| 2026-04-24 08:40 | 37.98549 | 32.57496 | 3387 ft | 0 kts | 15° |
| 2026-04-24 08:41 | 37.98548 | 32.57496 | 3387 ft | 0 kts | 15° |
| 2026-04-24 08:43 | 37.98550 | 32.57497 | 3387 ft | 1 kts | 15° |
| 2026-04-24 08:43 | 37.98569 | 32.57504 | 3387 ft | 4 kts | 17° |
| 2026-04-24 08:43 | 37.98612 | 32.57520 | 3387 ft | 9 kts | 17° |
| 2026-04-24 08:44 | 37.98690 | 32.57550 | 3388 ft | 14 kts | 17° |
| 2026-04-24 08:44 | 37.98791 | 32.57575 | 3389 ft | 16 kts | 11° |
| 2026-04-24 08:44 | 37.98894 | 32.57584 | 3390 ft | 15 kts | 339° |
| 2026-04-24 08:44 | 37.98971 | 32.57486 | 3391 ft | 17 kts | 309° |
| 2026-04-24 08:45 | 37.99052 | 32.57366 | 3391 ft | 19 kts | 311° |
| 2026-04-24 08:45 | 37.99142 | 32.57237 | 3392 ft | 21 kts | 311° |
| 2026-04-24 08:45 | 37.99227 | 32.57112 | 3392 ft | 20 kts | 311° |
| 2026-04-24 08:45 | 37.99274 | 32.56982 | 3392 ft | 14 kts | 288° |
| 2026-04-24 08:46 | 37.99303 | 32.56868 | 3391 ft | 2 kts | 287° |
| 2026-04-24 08:47 | 37.99312 | 32.56831 | 3391 ft | 8 kts | 287° |
| 2026-04-24 08:47 | 37.99334 | 32.56739 | 3390 ft | 13 kts | 287° |
| 2026-04-24 08:47 | 37.99362 | 32.56620 | 3392 ft | 15 kts | 287° |
| 2026-04-24 08:47 | 37.99374 | 32.56510 | 3393 ft | 10 kts | 231° |
| 2026-04-24 08:48 | 37.99342 | 32.56490 | 3392 ft | 0 kts | 197° |
| 2026-04-24 08:48 | 37.99274 | 32.56465 | 3392 ft | 36 kts | 196° |
| 2026-04-24 08:48 | 37.98799 | 32.56286 | 3390 ft | 103 kts | 197° |
| 2026-04-24 08:48 | 37.97941 | 32.55961 | 3380 ft | 152 kts | 196° |
| 2026-04-24 08:49 | 37.96842 | 32.55541 | 3661 ft | 169 kts | 197° |
| 2026-04-24 08:49 | 37.95718 | 32.55109 | 4204 ft | 174 kts | 197° |
| 2026-04-24 08:49 | 37.94571 | 32.54671 | 4932 ft | 169 kts | 197° |
| 2026-04-24 08:49 | 37.93428 | 32.54235 | 5493 ft | 175 kts | 197° |
| 2026-04-24 08:50 | 37.92218 | 32.53774 | 5789 ft | 194 kts | 197° |
| 2026-04-24 08:50 | 37.90853 | 32.53254 | 6126 ft | 214 kts | 197° |
| 2026-04-24 08:50 | 37.89385 | 32.52794 | 6799 ft | 219 kts | 189° |
| 2026-04-24 08:50 | 37.87881 | 32.52596 | 7650 ft | 218 kts | 187° |
| 2026-04-24 08:51 | 37.86363 | 32.52394 | 8568 ft | 219 kts | 190° |
| 2026-04-24 08:51 | 37.84842 | 32.52103 | 9493 ft | 221 kts | 194° |
| 2026-04-24 08:51 | 37.83332 | 32.51737 | 10311 ft | 221 kts | 197° |
| 2026-04-24 08:51 | 37.81833 | 32.51267 | 11038 ft | 220 kts | 207° |
| 2026-04-24 08:52 | 37.80561 | 32.50249 | 11783 ft | 216 kts | 228° |
| 2026-04-24 08:52 | 37.79711 | 32.48701 | 12556 ft | 214 kts | 249° |
| 2026-04-24 08:52 | 37.79428 | 32.46895 | 13336 ft | 214 kts | 270° |
| 2026-04-24 08:52 | 37.79745 | 32.45056 | 14101 ft | 219 kts | 290° |
| 2026-04-24 08:53 | 37.80662 | 32.43476 | 14821 ft | 231 kts | 312° |
| 2026-04-24 08:53 | 37.82112 | 32.42476 | 15561 ft | 248 kts | 336° |
| 2026-04-24 08:53 | 37.83902 | 32.42409 | 16320 ft | 272 kts | 4° |
| 2026-04-24 08:53 | 37.85696 | 32.43426 | 17032 ft | 293 kts | 25° |
| 2026-04-24 08:54 | 37.87383 | 32.44950 | 17751 ft | 302 kts | 30° |
| 2026-04-24 08:54 | 37.89061 | 32.46590 | 18464 ft | 307 kts | 30° |
| 2026-04-24 08:54 | 37.90762 | 32.48241 | 19106 ft | 310 kts | 30° |
| 2026-04-24 08:54 | 37.92503 | 32.49888 | 19738 ft | 314 kts | 29° |
| 2026-04-24 08:55 | 37.94276 | 32.51532 | 20365 ft | 318 kts | 28° |
| 2026-04-24 08:55 | 37.96084 | 32.53189 | 20991 ft | 322 kts | 28° |
| 2026-04-24 08:55 | 37.97917 | 32.54863 | 21635 ft | 327 kts | 28° |
| 2026-04-24 08:55 | 37.99749 | 32.56535 | 22248 ft | 330 kts | 29° |
| 2026-04-24 08:56 | 38.01718 | 32.57974 | 22819 ft | 321 kts | 9° |
| 2026-04-24 08:56 | 38.03854 | 32.58381 | 23360 ft | 304 kts | 344° |
| 2026-04-24 08:56 | 38.05861 | 32.57718 | 23547 ft | 297 kts | 320° |
| 2026-04-24 08:56 | 38.07421 | 32.56078 | 23687 ft | 292 kts | 297° |
| 2026-04-24 08:57 | 38.08257 | 32.53755 | 23813 ft | 293 kts | 275° |
| 2026-04-24 08:57 | 38.08216 | 32.51153 | 23943 ft | 303 kts | 254° |
| 2026-04-24 08:57 | 38.07339 | 32.48648 | 24075 ft | 321 kts | 240° |
| 2026-04-24 08:57 | 38.06069 | 32.46228 | 24202 ft | 338 kts | 237° |
| 2026-04-24 08:58 | 38.04660 | 32.43749 | 24367 ft | 353 kts | 237° |
| 2026-04-24 08:58 | 38.03392 | 32.41070 | 24818 ft | 354 kts | 247° |
| 2026-04-24 08:58 | 38.02671 | 32.38090 | 25465 ft | 356 kts | 258° |
| 2026-04-24 08:58 | 38.02472 | 32.34946 | 26010 ft | 360 kts | 267° |
| 2026-04-24 08:59 | 38.02624 | 32.31767 | 26681 ft | 362 kts | 272° |
| 2026-04-24 08:59 | 38.02944 | 32.28577 | 27198 ft | 366 kts | 274° |
| 2026-04-24 08:59 | 38.03331 | 32.25370 | 27708 ft | 369 kts | 274° |
| 2026-04-24 08:59 | 38.03727 | 32.22187 | 28208 ft | 371 kts | 274° |
| 2026-04-24 09:00 | 38.04126 | 32.18938 | 28690 ft | 373 kts | 274° |
| 2026-04-24 09:00 | 38.04519 | 32.15666 | 29171 ft | 375 kts | 274° |
| 2026-04-24 09:00 | 38.04905 | 32.12384 | 29611 ft | 377 kts | 274° |
| 2026-04-24 09:00 | 38.05293 | 32.09071 | 30022 ft | 380 kts | 274° |
| 2026-04-24 09:01 | 38.05550 | 32.06872 | 30312 ft | 381 kts | 274° |
| 2026-04-24 09:01 | 38.05937 | 32.03537 | 30718 ft | 383 kts | 274° |
| 2026-04-24 09:01 | 38.06325 | 32.00186 | 31119 ft | 385 kts | 274° |
| 2026-04-24 09:01 | 38.06714 | 31.96820 | 31572 ft | 385 kts | 274° |
| 2026-04-24 09:02 | 38.07227 | 31.92377 | 32244 ft | 383 kts | 274° |
| 2026-04-24 09:02 | 38.07612 | 31.89035 | 32739 ft | 382 kts | 273° |
| 2026-04-24 09:02 | 38.07870 | 31.86783 | 33047 ft | 382 kts | 273° |
| 2026-04-24 09:02 | 38.08252 | 31.83444 | 33527 ft | 381 kts | 273° |
| 2026-04-24 09:03 | 38.08630 | 31.80127 | 33979 ft | 379 kts | 273° |
| 2026-04-24 09:03 | 38.09007 | 31.76814 | 34336 ft | 380 kts | 273° |
| 2026-04-24 09:03 | 38.09382 | 31.73486 | 34604 ft | 382 kts | 273° |
| 2026-04-24 09:03 | 38.09759 | 31.70141 | 34901 ft | 382 kts | 274° |
| 2026-04-24 09:04 | 38.10136 | 31.66797 | 35185 ft | 383 kts | 274° |
| 2026-04-24 09:04 | 38.10509 | 31.63480 | 35445 ft | 385 kts | 274° |
| 2026-04-24 09:04 | 38.10895 | 31.60108 | 35663 ft | 388 kts | 276° |
| 2026-04-24 09:04 | 38.11569 | 31.56770 | 35921 ft | 393 kts | 284° |
| 2026-04-24 09:05 | 38.12658 | 31.53558 | 36220 ft | 399 kts | 292° |
| 2026-04-24 09:05 | 38.14151 | 31.50544 | 36475 ft | 408 kts | 301° |
| 2026-04-24 09:05 | 38.16015 | 31.47776 | 36707 ft | 413 kts | 305° |
| 2026-04-24 09:05 | 38.17946 | 31.45060 | 36975 ft | 414 kts | 305° |
| 2026-04-24 09:06 | 38.19872 | 31.42335 | 37235 ft | 415 kts | 305° |
| 2026-04-24 09:06 | 38.21799 | 31.39599 | 37485 ft | 415 kts | 306° |
| 2026-04-24 09:06 | 38.23724 | 31.36861 | 37752 ft | 416 kts | 306° |
| 2026-04-24 09:06 | 38.25651 | 31.34116 | 37961 ft | 416 kts | 306° |
| 2026-04-24 09:07 | 38.27582 | 31.31365 | 37972 ft | 416 kts | 306° |
| 2026-04-24 09:07 | 38.33349 | 31.23142 | 37975 ft | 415 kts | 306° |
| 2026-04-24 09:08 | 38.37202 | 31.17632 | 37970 ft | 416 kts | 306° |
| 2026-04-24 09:08 | 38.41032 | 31.12148 | 37969 ft | 416 kts | 306° |
| 2026-04-24 09:09 | 38.44881 | 31.06628 | 37963 ft | 416 kts | 306° |
| 2026-04-24 09:09 | 38.48721 | 31.01111 | 37963 ft | 415 kts | 306° |
| 2026-04-24 09:10 | 38.52528 | 30.95574 | 37975 ft | 415 kts | 305° |
| 2026-04-24 09:10 | 38.56357 | 30.89980 | 37971 ft | 420 kts | 305° |
| 2026-04-24 09:11 | 38.60200 | 30.84368 | 37971 ft | 419 kts | 305° |
| 2026-04-24 09:11 | 38.64033 | 30.78763 | 37971 ft | 419 kts | 305° |
| 2026-04-24 09:12 | 38.67846 | 30.73175 | 37974 ft | 419 kts | 305° |
| 2026-04-24 09:12 | 38.71676 | 30.67553 | 37974 ft | 419 kts | 305° |
| 2026-04-24 09:13 | 38.75505 | 30.61922 | 37980 ft | 419 kts | 305° |
| 2026-04-24 09:13 | 38.79626 | 30.56560 | 37970 ft | 426 kts | 314° |
| 2026-04-24 09:14 | 38.84523 | 30.52157 | 37967 ft | 434 kts | 324° |
| 2026-04-24 09:14 | 38.89935 | 30.48631 | 37981 ft | 437 kts | 327° |
| 2026-04-24 09:15 | 38.95337 | 30.45163 | 37982 ft | 437 kts | 327° |
| 2026-04-24 09:15 | 39.00784 | 30.41665 | 37983 ft | 437 kts | 327° |
| 2026-04-24 09:16 | 39.06237 | 30.38158 | 37996 ft | 438 kts | 328° |
| 2026-04-24 09:16 | 39.11698 | 30.34648 | 37996 ft | 439 kts | 328° |
| 2026-04-24 09:17 | 39.17159 | 30.31133 | 37994 ft | 439 kts | 328° |
| 2026-04-24 09:17 | 39.22622 | 30.27607 | 38004 ft | 439 kts | 328° |
| 2026-04-24 09:18 | 39.28053 | 30.24096 | 38018 ft | 439 kts | 328° |
| 2026-04-24 09:18 | 39.33514 | 30.20558 | 38012 ft | 439 kts | 328° |
| 2026-04-24 09:19 | 39.38980 | 30.17012 | 38013 ft | 439 kts | 328° |
| 2026-04-24 09:19 | 39.44432 | 30.13469 | 38013 ft | 439 kts | 328° |
| 2026-04-24 09:20 | 39.50016 | 30.10217 | 38013 ft | 440 kts | 332° |
| 2026-04-24 09:20 | 39.55655 | 30.07077 | 38001 ft | 440 kts | 333° |
| 2026-04-24 09:21 | 39.61241 | 30.03959 | 38006 ft | 440 kts | 333° |
| 2026-04-24 09:21 | 39.66861 | 30.00821 | 38003 ft | 440 kts | 333° |
| 2026-04-24 09:22 | 39.72484 | 29.97675 | 38009 ft | 440 kts | 333° |
| 2026-04-24 09:22 | 39.78109 | 29.94519 | 38007 ft | 440 kts | 333° |
| 2026-04-24 09:23 | 39.83732 | 29.91359 | 38001 ft | 440 kts | 333° |
| 2026-04-24 09:23 | 39.89394 | 29.88227 | 37698 ft | 443 kts | 336° |
| 2026-04-24 09:24 | 39.92341 | 29.87004 | 37434 ft | 445 kts | 342° |
| 2026-04-24 09:24 | 39.95375 | 29.86141 | 36956 ft | 449 kts | 347° |
| 2026-04-24 09:24 | 39.98468 | 29.85473 | 36253 ft | 451 kts | 347° |
| 2026-04-24 09:24 | 40.01525 | 29.84798 | 35561 ft | 451 kts | 347° |
| 2026-04-24 09:25 | 40.04631 | 29.84109 | 34766 ft | 453 kts | 348° |
| 2026-04-24 09:25 | 40.07749 | 29.83417 | 33952 ft | 455 kts | 348° |
| 2026-04-24 09:25 | 40.10876 | 29.82725 | 33108 ft | 455 kts | 348° |
| 2026-04-24 09:25 | 40.13995 | 29.82036 | 32295 ft | 454 kts | 349° |
| 2026-04-24 09:26 | 40.17107 | 29.81346 | 31466 ft | 453 kts | 349° |
| 2026-04-24 09:26 | 40.20206 | 29.80660 | 30748 ft | 451 kts | 349° |
| 2026-04-24 09:26 | 40.23286 | 29.79978 | 30176 ft | 444 kts | 349° |
| 2026-04-24 09:26 | 40.26311 | 29.79306 | 29522 ft | 438 kts | 349° |
| 2026-04-24 09:27 | 40.29293 | 29.78645 | 28927 ft | 431 kts | 349° |
| 2026-04-24 09:27 | 40.32241 | 29.78032 | 28334 ft | 425 kts | 354° |
| 2026-04-24 09:27 | 40.35166 | 29.78123 | 27884 ft | 417 kts | 8° |
| 2026-04-24 09:27 | 40.37915 | 29.79168 | 27646 ft | 409 kts | 23° |
| 2026-04-24 09:28 | 40.40356 | 29.81052 | 27407 ft | 417 kts | 33° |
| 2026-04-24 09:28 | 40.42741 | 29.83235 | 27046 ft | 417 kts | 33° |
| 2026-04-24 09:28 | 40.45103 | 29.85403 | 26690 ft | 413 kts | 33° |
| 2026-04-24 09:28 | 40.47550 | 29.87321 | 26333 ft | 408 kts | 22° |
| 2026-04-24 09:29 | 40.50250 | 29.88384 | 25991 ft | 404 kts | 7° |
| 2026-04-24 09:29 | 40.53046 | 29.88520 | 25633 ft | 401 kts | 354° |
| 2026-04-24 09:29 | 40.55825 | 29.88190 | 25288 ft | 400 kts | 353° |
| 2026-04-24 09:29 | 40.58591 | 29.87859 | 24868 ft | 398 kts | 353° |
| 2026-04-24 09:30 | 40.61320 | 29.87382 | 24419 ft | 394 kts | 347° |
| 2026-04-24 09:30 | 40.63964 | 29.86461 | 23999 ft | 393 kts | 340° |
| 2026-04-24 09:30 | 40.66489 | 29.85115 | 23570 ft | 389 kts | 333° |
| 2026-04-24 09:30 | 40.68934 | 29.83610 | 23074 ft | 386 kts | 334° |
| 2026-04-24 09:31 | 40.71353 | 29.82140 | 22574 ft | 379 kts | 334° |
| 2026-04-24 09:31 | 40.73721 | 29.80663 | 22084 ft | 373 kts | 329° |
| 2026-04-24 09:31 | 40.75824 | 29.78760 | 21755 ft | 378 kts | 322° |
| 2026-04-24 09:31 | 40.77896 | 29.76566 | 21580 ft | 382 kts | 320° |
| 2026-04-24 09:32 | 40.79931 | 29.74375 | 21490 ft | 373 kts | 321° |
| 2026-04-24 09:32 | 40.81936 | 29.72261 | 21225 ft | 365 kts | 321° |
| 2026-04-24 09:32 | 40.83932 | 29.70202 | 20962 ft | 365 kts | 322° |
| 2026-04-24 09:32 | 40.85945 | 29.68154 | 20705 ft | 365 kts | 322° |
| 2026-04-24 09:33 | 40.87958 | 29.66120 | 20449 ft | 363 kts | 322° |
| 2026-04-24 09:33 | 40.89957 | 29.64103 | 20205 ft | 361 kts | 323° |
| 2026-04-24 09:33 | 40.91949 | 29.62092 | 19962 ft | 359 kts | 323° |
| 2026-04-24 09:33 | 40.93929 | 29.60092 | 19712 ft | 357 kts | 323° |
| 2026-04-24 09:34 | 40.95900 | 29.58099 | 19465 ft | 355 kts | 323° |
| 2026-04-24 09:34 | 40.97857 | 29.56118 | 19223 ft | 353 kts | 323° |
| 2026-04-24 09:34 | 40.99813 | 29.54136 | 18981 ft | 351 kts | 323° |
| 2026-04-24 09:34 | 41.01748 | 29.52174 | 18765 ft | 348 kts | 323° |
| 2026-04-24 09:35 | 41.03647 | 29.50250 | 18647 ft | 338 kts | 322° |
| 2026-04-24 09:35 | 41.05469 | 29.48401 | 18369 ft | 331 kts | 322° |
| 2026-04-24 09:35 | 41.07302 | 29.46537 | 18109 ft | 333 kts | 323° |
| 2026-04-24 09:35 | 41.09150 | 29.44658 | 17836 ft | 333 kts | 323° |
| 2026-04-24 09:36 | 41.10981 | 29.42795 | 17562 ft | 331 kts | 323° |
| 2026-04-24 09:36 | 41.12806 | 29.40938 | 17286 ft | 331 kts | 323° |
| 2026-04-24 09:36 | 41.14647 | 29.39062 | 16941 ft | 333 kts | 323° |
| 2026-04-24 09:36 | 41.16448 | 29.37224 | 16767 ft | 317 kts | 323° |
| 2026-04-24 09:37 | 41.18128 | 29.35509 | 16474 ft | 303 kts | 323° |
| 2026-04-24 09:37 | 41.19785 | 29.33816 | 15787 ft | 302 kts | 323° |
| 2026-04-24 09:37 | 41.21455 | 29.32111 | 15100 ft | 302 kts | 323° |
| 2026-04-24 09:37 | 41.23110 | 29.30419 | 14579 ft | 298 kts | 323° |
| 2026-04-24 09:38 | 41.24793 | 29.28697 | 14113 ft | 303 kts | 323° |
| 2026-04-24 09:38 | 41.26448 | 29.27003 | 13667 ft | 303 kts | 324° |
| 2026-04-24 09:38 | 41.28094 | 29.25315 | 13376 ft | 296 kts | 323° |
| 2026-04-24 09:38 | 41.29728 | 29.23642 | 12902 ft | 295 kts | 323° |
| 2026-04-24 09:39 | 41.31350 | 29.21979 | 12568 ft | 290 kts | 323° |
| 2026-04-24 09:39 | 41.32919 | 29.20367 | 12408 ft | 280 kts | 323° |
| 2026-04-24 09:39 | 41.34447 | 29.18798 | 12066 ft | 276 kts | 323° |
| 2026-04-24 09:39 | 41.35971 | 29.17233 | 11650 ft | 275 kts | 323° |
| 2026-04-24 09:40 | 41.37455 | 29.15706 | 11333 ft | 271 kts | 323° |
| 2026-04-24 09:40 | 41.38940 | 29.14179 | 11063 ft | 267 kts | 323° |
| 2026-04-24 09:40 | 41.40414 | 29.12661 | 10994 ft | 266 kts | 323° |
| 2026-04-24 09:40 | 41.41839 | 29.11192 | 10877 ft | 252 kts | 323° |
| 2026-04-24 09:41 | 41.43198 | 29.09790 | 10565 ft | 244 kts | 323° |
| 2026-04-24 09:41 | 41.44534 | 29.08413 | 10098 ft | 242 kts | 323° |
| 2026-04-24 09:41 | 41.45860 | 29.07045 | 9603 ft | 240 kts | 323° |
| 2026-04-24 09:41 | 41.47179 | 29.05686 | 9062 ft | 239 kts | 323° |
| 2026-04-24 09:42 | 41.48483 | 29.04341 | 8747 ft | 240 kts | 323° |
| 2026-04-24 09:42 | 41.49801 | 29.02981 | 8414 ft | 242 kts | 322° |
| 2026-04-24 09:42 | 41.51148 | 29.01590 | 8072 ft | 241 kts | 322° |
| 2026-04-24 09:42 | 41.52444 | 29.00251 | 7795 ft | 236 kts | 322° |
| 2026-04-24 09:43 | 41.53735 | 28.98914 | 7315 ft | 234 kts | 322° |
| 2026-04-24 09:43 | 41.55023 | 28.97581 | 6833 ft | 234 kts | 322° |
| 2026-04-24 09:43 | 41.56308 | 28.96250 | 6360 ft | 234 kts | 322° |
| 2026-04-24 09:43 | 41.57484 | 28.94776 | 5888 ft | 231 kts | 309° |
| 2026-04-24 09:44 | 41.58352 | 28.92978 | 5417 ft | 230 kts | 298° |
| 2026-04-24 09:44 | 41.59097 | 28.91096 | 4969 ft | 228 kts | 298° |
| 2026-04-24 09:44 | 41.59851 | 28.89232 | 4503 ft | 228 kts | 297° |
| 2026-04-24 09:44 | 41.60603 | 28.87373 | 4129 ft | 226 kts | 298° |
| 2026-04-24 09:45 | 41.61364 | 28.85536 | 4004 ft | 227 kts | 299° |
| 2026-04-24 09:45 | 41.61884 | 28.84327 | 3990 ft | 227 kts | 300° |
| 2026-04-24 09:45 | 41.62678 | 28.82505 | 3989 ft | 227 kts | 300° |
| 2026-04-24 09:45 | 41.63405 | 28.80643 | 3984 ft | 226 kts | 287° |
| 2026-04-24 09:46 | 41.63449 | 28.78588 | 3985 ft | 219 kts | 255° |
| 2026-04-24 09:46 | 41.62691 | 28.76847 | 3989 ft | 221 kts | 224° |
| 2026-04-24 09:46 | 41.61508 | 28.75534 | 3984 ft | 221 kts | 220° |
| 2026-04-24 09:46 | 41.60291 | 28.74276 | 3974 ft | 221 kts | 211° |
| 2026-04-24 09:47 | 41.58813 | 28.73809 | 3990 ft | 224 kts | 173° |
| 2026-04-24 09:47 | 41.57289 | 28.74309 | 3985 ft | 223 kts | 164° |
| 2026-04-24 09:47 | 41.55848 | 28.74849 | 3982 ft | 208 kts | 169° |
| 2026-04-24 09:47 | 41.54422 | 28.75117 | 3986 ft | 210 kts | 177° |
| 2026-04-24 09:48 | 41.52965 | 28.75183 | 3984 ft | 209 kts | 181° |
| 2026-04-24 09:48 | 41.51513 | 28.75197 | 3985 ft | 209 kts | 180° |
| 2026-04-24 09:48 | 41.50060 | 28.75225 | 3986 ft | 209 kts | 180° |
| 2026-04-24 09:48 | 41.48607 | 28.75252 | 3986 ft | 209 kts | 180° |
| 2026-04-24 09:49 | 41.47166 | 28.75279 | 3924 ft | 202 kts | 180° |
| 2026-04-24 09:49 | 41.45805 | 28.75304 | 3715 ft | 192 kts | 180° |
| 2026-04-24 09:49 | 41.44481 | 28.75328 | 3433 ft | 190 kts | 180° |
| 2026-04-24 09:49 | 41.43167 | 28.75353 | 3158 ft | 189 kts | 180° |
| 2026-04-24 09:50 | 41.41847 | 28.75377 | 2879 ft | 189 kts | 181° |
| 2026-04-24 09:50 | 41.40538 | 28.75402 | 2621 ft | 185 kts | 181° |
| 2026-04-24 09:50 | 41.39302 | 28.75426 | 2371 ft | 170 kts | 181° |
| 2026-04-24 09:50 | 41.38144 | 28.75447 | 2153 ft | 167 kts | 181° |
| 2026-04-24 09:51 | 41.36994 | 28.75468 | 1936 ft | 158 kts | 181° |
| 2026-04-24 09:51 | 41.35980 | 28.75489 | 1730 ft | 140 kts | 182° |
| 2026-04-24 09:51 | 41.35060 | 28.75504 | 1532 ft | 127 kts | 181° |
| 2026-04-24 09:51 | 41.34157 | 28.75521 | 1362 ft | 126 kts | 185° |
| 2026-04-24 09:52 | 41.33286 | 28.75563 | 1178 ft | 126 kts | 181° |
| 2026-04-24 09:52 | 41.32419 | 28.75601 | 1006 ft | 122 kts | 182° |
| 2026-04-24 09:52 | 41.31582 | 28.75605 | 796 ft | 119 kts | 183° |
| 2026-04-24 09:52 | 41.30752 | 28.75608 | 586 ft | 117 kts | 182° |
| 2026-04-24 09:53 | 41.29945 | 28.75620 | 426 ft | 117 kts | 182° |
| 2026-04-24 09:53 | 41.29140 | 28.75632 | 310 ft | 115 kts | 182° |
| 2026-04-24 09:53 | 41.28368 | 28.75635 | 255 ft | 95 kts | 179° |
| 2026-04-24 09:53 | 41.27887 | 28.75644 | 272 ft | 54 kts | 180° |
| 2026-04-24 09:54 | 41.27553 | 28.75649 | 290 ft | 43 kts | 179° |
| 2026-04-24 09:54 | 41.27279 | 28.75650 | 296 ft | 36 kts | 183° |
| 2026-04-24 09:54 | 41.27088 | 28.75570 | 304 ft | 23 kts | 207° |
| 2026-04-24 09:54 | 41.27008 | 28.75509 | 306 ft | 11 kts | 210° |
| 2026-04-24 09:55 | 41.26943 | 28.75461 | 307 ft | 0 kts | 209° |
| 2026-04-24 09:55 | 41.26941 | 28.75460 | 307 ft | 1 kts | 209° |
| 2026-04-24 09:56 | 41.26909 | 28.75434 | 308 ft | 10 kts | 217° |
| 2026-04-24 09:56 | 41.26891 | 28.75328 | 308 ft | 13 kts | 271° |
| 2026-04-24 09:56 | 41.26862 | 28.75261 | 308 ft | 7 kts | 187° |
| 2026-04-24 09:56 | 41.26799 | 28.75255 | 309 ft | 12 kts | 178° |
| 2026-04-24 09:57 | 41.26698 | 28.75259 | 310 ft | 16 kts | 179° |
| 2026-04-24 09:57 | 41.26576 | 28.75260 | 311 ft | 18 kts | 179° |
| 2026-04-24 09:57 | 41.26443 | 28.75263 | 312 ft | 20 kts | 179° |
| 2026-04-24 09:57 | 41.26302 | 28.75265 | 313 ft | 19 kts | 179° |
| 2026-04-24 09:58 | 41.26240 | 28.75175 | 313 ft | 13 kts | 269° |
| 2026-04-24 09:58 | 41.26240 | 28.75152 | 313 ft | 0 kts | 268° |
| 2026-04-24 09:58 | 41.26240 | 28.75133 | 313 ft | 5 kts | 268° |
| 2026-04-24 09:59 | 41.26239 | 28.75041 | 313 ft | 13 kts | 267° |
| 2026-04-24 09:59 | 41.26193 | 28.74985 | 313 ft | 10 kts | 182° |
| 2026-04-24 09:59 | 41.26151 | 28.74942 | 312 ft | 9 kts | 249° |
| 2026-04-24 09:59 | 41.26130 | 28.74863 | 313 ft | 6 kts | 251° |
| 2026-04-24 10:00 | 41.26128 | 28.74855 | 313 ft | 0 kts | 251° |